createdAt,value
2018-12-18T00:01:06.774Z,37.10
2018-12-18T00:03:39.293Z,33.37
2018-12-18T00:06:06.509Z,34.13
2018-12-18T00:08:35.407Z,37.10
2018-12-18T00:11:04.535Z,36.87
2018-12-18T00:13:34.018Z,34.30
2018-12-18T00:16:04.195Z,39.78
2018-12-18T00:18:33.851Z,36.20
2018-12-18T00:21:02.641Z,37.80
2018-12-18T00:23:31.575Z,36.80
2018-12-18T00:26:00.423Z,39.67
2018-12-18T00:28:29.441Z,40.97
2018-12-18T00:30:58.369Z,35.27
2018-12-18T00:33:27.049Z,40.20
2018-12-18T00:35:55.813Z,39.30
2018-12-18T00:38:24.731Z,40.10
2018-12-18T00:40:53.693Z,36.20
2018-12-18T00:43:22.609Z,37.37
2018-12-18T00:45:51.795Z,38.13
2018-12-18T00:48:20.791Z,35.97
2018-12-18T00:50:49.587Z,38.90
2018-12-18T00:53:18.577Z,40.50
2018-12-18T00:55:53.926Z,39.75
2018-12-18T00:58:22.793Z,41.60
2018-12-18T01:00:51.633Z,45.03
2018-12-18T01:03:20.479Z,42.10
2018-12-18T01:05:49.370Z,46.23
2018-12-18T01:08:18.303Z,44.60
2018-12-18T01:10:47.053Z,40.50
2018-12-18T01:13:16.963Z,48.47
2018-12-18T01:15:45.847Z,45.70
2018-12-18T01:18:14.496Z,41.55
2018-12-18T01:20:43.320Z,46.63
2018-12-18T01:23:12.044Z,46.63
2018-12-18T01:25:40.767Z,55.40
2018-12-18T01:28:09.551Z,45.57
2018-12-18T01:30:38.197Z,44.75
2018-12-18T01:33:06.879Z,41.92
2018-12-18T01:35:35.756Z,45.43
2018-12-18T01:38:04.503Z,42.80
2018-12-18T01:40:33.847Z,47.65
2018-12-18T01:43:02.737Z,45.73
2018-12-18T01:45:31.406Z,44.33
2018-12-18T01:48:00.161Z,46.83
2018-12-18T01:50:29.048Z,47.30
2018-12-18T01:52:57.882Z,45.17
2018-12-18T01:55:26.630Z,45.63
2018-12-18T01:57:55.519Z,46.07
2018-12-18T02:00:24.927Z,48.27
2018-12-18T02:02:53.752Z,49.03
2018-12-18T02:05:22.779Z,41.70
2018-12-18T02:07:51.694Z,46.07
2018-12-18T02:10:20.488Z,42.50
2018-12-18T02:12:49.370Z,43.23
2018-12-18T02:15:18.236Z,41.10
2018-12-18T02:17:47.053Z,46.75
2018-12-18T02:20:15.925Z,43.65
2018-12-18T02:22:44.677Z,42.67
2018-12-18T02:25:13.524Z,42.17
2018-12-18T02:27:42.286Z,50.07
2018-12-18T02:30:11.042Z,44.00
2018-12-18T02:32:39.784Z,43.77
2018-12-18T02:35:08.569Z,46.73
2018-12-18T02:37:37.354Z,48.87
2018-12-18T02:40:06.570Z,47.50
2018-12-18T02:42:35.303Z,43.87
2018-12-18T02:45:04.464Z,47.53
2018-12-18T02:47:33.987Z,45.73
2018-12-18T02:50:02.779Z,47.80
2018-12-18T02:52:32.143Z,41.77
2018-12-18T02:55:00.774Z,45.12
2018-12-18T02:57:29.560Z,44.97
2018-12-18T02:59:58.254Z,48.47
2018-12-18T03:02:26.939Z,39.70
2018-12-18T03:04:55.791Z,40.37
2018-12-18T03:07:24.465Z,39.33
2018-12-18T03:09:53.189Z,40.93
2018-12-18T03:12:22.022Z,45.43
2018-12-18T03:14:50.777Z,39.95
2018-12-18T03:17:19.496Z,41.70
2018-12-18T03:19:48.523Z,40.93
2018-12-18T03:22:17.292Z,39.70
2018-12-18T03:24:46.081Z,39.08
2018-12-18T03:27:14.812Z,40.83
2018-12-18T03:29:43.585Z,38.17
2018-12-18T03:32:16.757Z,41.27
2018-12-18T03:34:45.520Z,39.58
2018-12-18T03:37:14.239Z,40.17
2018-12-18T03:39:43.052Z,45.83
2018-12-18T03:42:11.797Z,44.15
2018-12-18T03:44:40.484Z,42.23
2018-12-18T03:47:09.414Z,46.47
2018-12-18T03:49:38.151Z,44.00
2018-12-18T03:52:06.963Z,45.87
2018-12-18T03:54:36.146Z,47.70
2018-12-18T03:57:04.941Z,44.30
2018-12-18T03:59:34.054Z,48.78
2018-12-18T04:02:02.879Z,48.80
2018-12-18T04:04:35.497Z,46.83
2018-12-18T04:07:02.329Z,43.53
2018-12-18T04:09:31.278Z,46.07
2018-12-18T04:12:05.196Z,39.07
2018-12-18T04:14:34.164Z,50.05
2018-12-18T04:17:02.841Z,42.37
2018-12-18T04:19:31.599Z,45.47
2018-12-18T04:22:00.519Z,44.20
2018-12-18T04:24:29.314Z,41.17
2018-12-18T04:26:58.064Z,44.33
2018-12-18T04:29:26.848Z,50.10
2018-12-18T04:31:55.538Z,43.67
2018-12-18T04:34:24.225Z,51.90
2018-12-18T04:36:53.084Z,45.33
2018-12-18T04:39:22.303Z,49.33
2018-12-18T04:41:51.000Z,42.43
2018-12-18T04:44:19.996Z,42.62
2018-12-18T04:46:48.870Z,45.13
2018-12-18T04:49:17.687Z,47.00
2018-12-18T04:51:46.500Z,46.95
2018-12-18T04:54:15.210Z,50.00
2018-12-18T04:56:43.864Z,45.55
2018-12-18T04:59:12.707Z,47.90
2018-12-18T05:01:41.373Z,50.10
2018-12-18T05:04:10.026Z,45.23
2018-12-18T05:06:38.768Z,45.97
2018-12-18T05:09:09.887Z,49.47
2018-12-18T05:11:38.871Z,42.80
2018-12-18T05:14:07.768Z,47.63
2018-12-18T05:16:36.515Z,43.73
2018-12-18T05:19:06.045Z,44.60
2018-12-18T05:21:34.887Z,47.70
2018-12-18T05:24:03.765Z,47.77
2018-12-18T05:26:32.693Z,45.30
2018-12-18T05:29:01.792Z,40.93
2018-12-18T05:31:30.581Z,43.73
2018-12-18T05:33:59.268Z,43.40
2018-12-18T05:36:28.017Z,42.05
2018-12-18T05:38:56.877Z,42.17
2018-12-18T05:41:25.563Z,43.93
2018-12-18T05:43:54.540Z,43.60
2018-12-18T05:46:23.231Z,41.60
2018-12-18T05:48:52.106Z,40.67
2018-12-18T05:51:20.878Z,48.03
2018-12-18T05:53:49.645Z,41.27
2018-12-18T05:56:18.398Z,43.80
2018-12-18T05:58:47.228Z,40.98
2018-12-18T06:01:16.134Z,44.72
2018-12-18T06:03:44.857Z,38.98
2018-12-18T06:06:13.774Z,40.63
2018-12-18T06:08:42.512Z,43.38
2018-12-18T06:11:11.225Z,42.03
2018-12-18T06:13:40.143Z,43.97
2018-12-18T06:16:08.981Z,39.10
2018-12-18T06:18:37.732Z,41.17
2018-12-18T06:21:06.748Z,40.20
2018-12-18T06:23:36.145Z,37.17
2018-12-18T06:26:06.343Z,37.23
2018-12-18T06:28:36.213Z,37.63
2018-12-18T06:31:05.099Z,37.57
2018-12-18T06:33:33.904Z,39.10
2018-12-18T06:36:02.857Z,40.73
2018-12-18T06:38:31.643Z,42.43
2018-12-18T06:41:00.456Z,40.23
2018-12-18T06:43:29.222Z,39.43
2018-12-18T06:45:58.041Z,45.17
2018-12-18T06:48:26.768Z,42.60
2018-12-18T06:50:55.560Z,36.00
2018-12-18T06:53:24.581Z,39.70
2018-12-18T06:55:53.339Z,41.93
2018-12-18T06:58:22.235Z,40.80
2018-12-18T07:00:50.987Z,37.83
2018-12-18T07:03:19.768Z,38.40
2018-12-18T07:05:48.632Z,37.10
2018-12-18T07:08:17.414Z,43.73
2018-12-18T07:10:46.128Z,37.93
2018-12-18T07:13:15.013Z,43.10
2018-12-18T07:15:43.735Z,40.28
2018-12-18T07:18:12.541Z,42.13
2018-12-18T07:20:41.731Z,43.30
2018-12-18T07:23:10.516Z,40.23
2018-12-18T07:25:39.201Z,45.98
2018-12-18T07:28:08.447Z,41.83
2018-12-18T07:30:37.469Z,48.85
2018-12-18T07:33:06.321Z,43.80
2018-12-18T07:35:35.113Z,50.67
2018-12-18T07:38:04.808Z,42.80
2018-12-18T07:40:33.846Z,43.47
2018-12-18T07:43:04.290Z,45.87
2018-12-18T07:45:33.097Z,44.37
2018-12-18T07:48:01.908Z,43.67
2018-12-18T07:50:30.696Z,44.50
2018-12-18T07:52:59.474Z,45.70
2018-12-18T07:55:28.966Z,44.97
2018-12-18T07:57:57.818Z,49.80
2018-12-18T08:00:26.575Z,44.43
2018-12-18T08:02:55.503Z,48.47
2018-12-18T08:05:29.869Z,56.10
2018-12-18T08:07:55.284Z,42.38
2018-12-18T08:10:24.267Z,43.37
2018-12-18T08:12:53.245Z,42.93
2018-12-18T08:15:21.952Z,40.58
2018-12-18T08:17:50.714Z,40.33
2018-12-18T08:20:19.551Z,36.28
2018-12-18T08:22:48.302Z,39.20
2018-12-18T08:25:17.110Z,42.00
2018-12-18T08:27:46.249Z,39.93
2018-12-18T08:30:15.207Z,41.98
2018-12-18T08:32:43.925Z,39.88
2018-12-18T08:35:12.817Z,37.83
2018-12-18T08:37:41.535Z,37.03
2018-12-18T08:40:10.460Z,35.28
2018-12-18T08:42:39.350Z,38.80
2018-12-18T08:45:09.593Z,34.57
2018-12-18T08:47:38.386Z,33.85
2018-12-18T08:50:08.450Z,30.63
2018-12-18T08:52:37.268Z,33.60
2018-12-18T08:55:07.275Z,35.92
2018-12-18T08:57:36.569Z,34.15
2018-12-18T09:00:07.725Z,32.95
2018-12-18T09:02:36.447Z,32.53
2018-12-18T09:05:05.993Z,33.20
2018-12-18T09:07:34.709Z,31.30
2018-12-18T09:10:03.565Z,36.23
2018-12-18T09:12:32.461Z,31.77
2018-12-18T09:15:03.262Z,33.13
2018-12-18T09:17:37.287Z,32.67
2018-12-18T09:20:06.864Z,34.40
2018-12-18T09:22:36.520Z,33.23
2018-12-18T09:25:06.019Z,31.03
2018-12-18T09:27:34.704Z,33.20
2018-12-18T09:30:03.746Z,29.02
2018-12-18T09:32:32.713Z,35.87
2018-12-18T09:35:01.414Z,34.63
2018-12-18T09:37:30.232Z,31.80
2018-12-18T09:39:59.493Z,35.03
2018-12-18T09:42:33.334Z,33.43
2018-12-18T09:45:02.334Z,35.70
2018-12-18T09:47:31.118Z,40.20
2018-12-18T09:49:59.803Z,34.03
2018-12-18T09:52:28.620Z,31.13
2018-12-18T09:54:57.480Z,38.03
2018-12-18T09:57:31.324Z,34.33
2018-12-18T10:00:00.207Z,33.63
2018-12-18T10:02:29.066Z,36.97
2018-12-18T10:04:58.409Z,43.17
2018-12-18T10:07:27.357Z,40.07
2018-12-18T10:10:04.901Z,37.87
2018-12-18T10:12:38.786Z,40.63
2018-12-18T10:15:07.933Z,38.48
2018-12-18T10:17:36.574Z,38.63
2018-12-18T10:20:05.670Z,37.40
2018-12-18T10:22:34.455Z,40.67
2018-12-18T10:25:03.347Z,41.03
2018-12-18T10:27:32.131Z,39.30
2018-12-18T10:30:01.002Z,37.17
2018-12-18T10:32:29.715Z,39.87
2018-12-18T10:34:58.474Z,42.10
2018-12-18T10:37:27.388Z,43.30
2018-12-18T10:39:56.163Z,40.93
2018-12-18T10:42:24.970Z,46.63
2018-12-18T10:44:53.863Z,43.83
2018-12-18T10:47:22.653Z,40.70
2018-12-18T10:49:51.293Z,41.03
2018-12-18T10:52:20.045Z,39.17
2018-12-18T10:54:48.773Z,42.17
2018-12-18T10:57:17.489Z,44.00
2018-12-18T10:59:46.528Z,42.83
2018-12-18T11:02:15.200Z,47.60
2018-12-18T11:04:43.956Z,43.90
2018-12-18T11:07:12.958Z,45.85
2018-12-18T11:09:41.683Z,45.17
2018-12-18T11:12:10.497Z,43.70
2018-12-18T11:14:39.322Z,42.13
2018-12-18T11:17:08.018Z,43.83
2018-12-18T11:19:36.740Z,43.93
2018-12-18T11:22:05.665Z,40.67
2018-12-18T11:24:34.395Z,42.40
2018-12-18T11:27:03.121Z,40.53
2018-12-18T11:29:31.925Z,44.63
2018-12-18T11:32:00.655Z,44.10
2018-12-18T11:34:29.327Z,41.03
2018-12-18T11:36:58.416Z,41.73
2018-12-18T11:39:27.203Z,44.47
2018-12-18T11:41:55.932Z,45.23
2018-12-18T11:44:24.790Z,46.13
2018-12-18T11:46:53.550Z,44.60
2018-12-18T11:49:22.602Z,39.70
2018-12-18T11:51:51.285Z,46.33
2018-12-18T11:54:19.956Z,43.00
2018-12-18T11:56:48.651Z,45.05
2018-12-18T11:59:17.444Z,42.43
2018-12-18T12:01:46.153Z,45.10
2018-12-18T12:04:14.817Z,43.33
2018-12-18T12:06:43.884Z,39.67
2018-12-18T12:09:12.621Z,39.67
2018-12-18T12:11:41.263Z,43.00
2018-12-18T12:14:10.064Z,40.67
2018-12-18T12:16:38.837Z,43.30
2018-12-18T12:19:07.539Z,47.33
2018-12-18T12:21:36.726Z,41.53
2018-12-18T12:24:05.465Z,41.93
2018-12-18T12:26:35.166Z,40.70
2018-12-18T12:29:03.949Z,41.67
2018-12-18T12:31:32.641Z,39.45
2018-12-18T12:34:01.335Z,39.43
2018-12-18T12:36:30.077Z,42.53
2018-12-18T12:38:58.824Z,43.03
2018-12-18T12:41:27.643Z,38.80
2018-12-18T12:43:56.374Z,39.43
2018-12-18T12:46:25.115Z,33.80
2018-12-18T12:48:55.562Z,38.47
2018-12-18T12:51:24.773Z,36.50
2018-12-18T12:53:53.677Z,35.52
2018-12-18T12:56:22.882Z,35.60
2018-12-18T12:58:51.717Z,33.80
2018-12-18T13:01:20.404Z,35.33
2018-12-18T13:03:49.251Z,31.17
2018-12-18T13:06:18.320Z,31.48
2018-12-18T13:08:47.129Z,29.35
2018-12-18T13:11:17.051Z,35.93
2018-12-18T13:13:48.954Z,29.63
2018-12-18T13:16:20.722Z,29.32
2018-12-18T13:18:49.916Z,32.63
2018-12-18T13:21:18.625Z,30.60
2018-12-18T13:23:47.307Z,32.67
2018-12-18T13:26:18.223Z,29.37
2018-12-18T13:28:46.931Z,25.20
2018-12-18T13:31:15.763Z,23.20
2018-12-18T13:33:44.801Z,25.63
2018-12-18T13:36:15.233Z,26.45
2018-12-18T13:38:44.240Z,30.17
2018-12-18T13:41:13.309Z,26.13
2018-12-18T13:43:41.995Z,27.90
2018-12-18T13:46:14.986Z,26.80
2018-12-18T13:48:41.667Z,30.20
2018-12-18T13:51:10.471Z,27.90
2018-12-18T13:53:39.550Z,28.03
2018-12-18T13:56:08.452Z,28.07
2018-12-18T13:58:37.178Z,24.20
2018-12-18T14:01:07.382Z,30.13
2018-12-18T14:03:37.240Z,26.83
2018-12-18T14:06:06.892Z,29.67
2018-12-18T14:08:35.629Z,30.83
2018-12-18T14:11:04.523Z,27.60
2018-12-18T14:13:33.398Z,29.80
2018-12-18T14:16:02.077Z,31.70
2018-12-18T14:18:31.673Z,28.20
2018-12-18T14:21:00.562Z,28.70
2018-12-18T14:23:29.275Z,22.93
2018-12-18T14:25:58.443Z,28.77
2018-12-18T14:28:27.227Z,24.13
2018-12-18T14:30:56.311Z,43.90
2018-12-18T14:33:25.048Z,26.73
2018-12-18T14:35:53.803Z,23.70
2018-12-18T14:38:22.538Z,23.70
2018-12-18T14:40:51.377Z,27.50
2018-12-18T14:43:20.272Z,22.53
2018-12-18T14:45:48.983Z,20.93
2018-12-18T14:48:17.744Z,21.57
2018-12-18T14:50:46.430Z,19.87
2018-12-18T14:53:15.196Z,19.33
2018-12-18T14:55:44.166Z,21.80
2018-12-18T14:58:12.900Z,19.35
2018-12-18T15:00:41.730Z,16.37
2018-12-18T15:03:10.436Z,18.03
2018-12-18T15:05:39.122Z,16.53
2018-12-18T15:08:07.824Z,14.87
2018-12-18T15:10:37.053Z,15.80
2018-12-18T15:13:05.975Z,19.73
2018-12-18T15:15:34.620Z,17.87
2018-12-18T15:18:03.413Z,14.87
2018-12-18T15:20:32.091Z,18.33
2018-12-18T15:23:00.780Z,18.60
2018-12-18T15:25:31.110Z,17.87
2018-12-18T15:27:59.770Z,22.45
2018-12-18T15:30:28.864Z,17.77
2018-12-18T15:32:57.722Z,21.73
2018-12-18T15:35:27.493Z,18.87
2018-12-18T15:37:56.203Z,17.27
2018-12-18T15:40:25.102Z,19.60
2018-12-18T15:42:53.837Z,22.32
2018-12-18T15:45:22.638Z,17.92
2018-12-18T15:47:51.436Z,19.23
2018-12-18T15:50:20.148Z,20.37
2018-12-18T15:52:48.872Z,25.72
2018-12-18T15:55:17.640Z,18.13
2018-12-18T15:57:46.388Z,18.83
2018-12-18T16:00:15.216Z,19.93
2018-12-18T16:02:44.000Z,25.17
2018-12-18T16:05:12.777Z,25.57
2018-12-18T16:07:41.536Z,21.77
2018-12-18T16:10:10.458Z,23.87
2018-12-18T16:12:39.119Z,21.13
2018-12-18T16:15:08.567Z,28.93
2018-12-18T16:17:37.508Z,21.20
2018-12-18T16:20:07.686Z,27.07
2018-12-18T16:22:37.136Z,23.42
2018-12-18T16:25:06.171Z,21.03
2018-12-18T16:27:34.950Z,23.38
2018-12-18T16:30:03.910Z,20.60
2018-12-18T16:32:32.723Z,18.80
2018-12-18T16:35:01.493Z,29.17
2018-12-18T16:37:30.842Z,22.43
2018-12-18T16:39:59.800Z,19.77
2018-12-18T16:42:28.579Z,20.23
2018-12-18T16:44:57.503Z,17.57
2018-12-18T16:47:26.393Z,17.77
2018-12-18T16:49:55.227Z,15.73
2018-12-18T16:52:24.105Z,18.60
2018-12-18T16:54:52.961Z,19.27
2018-12-18T16:57:21.754Z,25.17
2018-12-18T16:59:50.484Z,21.17
2018-12-18T17:02:19.330Z,14.30
2018-12-18T17:04:48.120Z,16.12
2018-12-18T17:07:16.872Z,23.57
2018-12-18T17:09:45.667Z,26.70
2018-12-18T17:12:14.380Z,13.40
2018-12-18T17:14:43.113Z,18.62
2018-12-18T17:17:11.854Z,15.95
2018-12-18T17:19:40.581Z,17.07
2018-12-18T17:22:09.349Z,18.40
2018-12-18T17:24:38.261Z,18.23
2018-12-18T17:27:07.110Z,18.87
2018-12-18T17:29:35.768Z,24.63
2018-12-18T17:32:04.586Z,17.47
2018-12-18T17:34:33.311Z,16.77
2018-12-18T17:37:01.959Z,18.67
2018-12-18T17:39:30.736Z,16.33
2018-12-18T17:41:59.451Z,16.97
2018-12-18T17:44:28.270Z,15.93
2018-12-18T17:46:57.087Z,19.20
2018-12-18T17:49:25.999Z,13.00
2018-12-18T17:51:55.033Z,15.57
2018-12-18T17:54:24.084Z,15.40
2018-12-18T17:56:52.857Z,17.13
2018-12-18T17:59:21.658Z,29.70
2018-12-18T18:01:50.488Z,20.85
2018-12-18T18:04:19.355Z,16.32
2018-12-18T18:06:48.233Z,17.35
2018-12-18T18:09:17.139Z,17.93
2018-12-18T18:11:45.895Z,17.47
2018-12-18T18:14:14.914Z,18.80
2018-12-18T18:16:43.813Z,17.35
2018-12-18T18:19:12.631Z,13.58
2018-12-18T18:21:41.387Z,16.17
2018-12-18T18:24:10.245Z,14.75
2018-12-18T18:26:39.258Z,15.70
2018-12-18T18:29:08.192Z,14.43
2018-12-18T18:31:37.454Z,16.12
2018-12-18T18:34:07.196Z,15.32
2018-12-18T18:36:35.955Z,16.90
2018-12-18T18:39:07.495Z,20.67
2018-12-18T18:41:37.420Z,19.37
2018-12-18T18:44:07.256Z,18.95
2018-12-18T18:46:36.428Z,16.83
2018-12-18T18:49:05.216Z,16.27
2018-12-18T18:51:34.005Z,17.33
2018-12-18T18:54:02.971Z,17.37
2018-12-18T18:56:31.735Z,14.90
2018-12-18T18:59:00.557Z,14.73
2018-12-18T19:01:29.397Z,16.43
2018-12-18T19:03:58.096Z,17.60
2018-12-18T19:06:26.939Z,16.62
2018-12-18T19:08:55.833Z,17.40
2018-12-18T19:11:24.525Z,21.83
2018-12-18T19:13:53.413Z,15.75
2018-12-18T19:16:22.532Z,15.55
2018-12-18T19:18:51.352Z,19.63
2018-12-18T19:21:20.066Z,15.93
2018-12-18T19:23:48.976Z,17.37
2018-12-18T19:26:17.674Z,16.50
2018-12-18T19:28:50.240Z,19.77
2018-12-18T19:31:17.215Z,13.90
2018-12-18T19:33:45.949Z,15.10
2018-12-18T19:36:14.673Z,14.50
2018-12-18T19:38:43.492Z,14.70
2018-12-18T19:41:12.241Z,16.00
2018-12-18T19:43:40.979Z,15.90
2018-12-18T19:46:09.897Z,12.80
2018-12-18T19:48:38.948Z,18.20
2018-12-18T19:51:07.761Z,15.63
2018-12-18T19:53:37.927Z,14.68
2018-12-18T19:56:07.307Z,14.33
2018-12-18T19:58:36.126Z,11.43
2018-12-18T20:01:05.125Z,14.60
2018-12-18T20:03:33.873Z,15.10
2018-12-18T20:06:02.595Z,19.20
2018-12-18T20:08:32.283Z,15.27
2018-12-18T20:11:01.546Z,14.70
2018-12-18T20:13:30.516Z,15.10
2018-12-18T20:15:59.330Z,16.45
2018-12-18T20:18:28.127Z,18.37
2018-12-18T20:20:56.966Z,17.57
2018-12-18T20:23:25.768Z,21.67
2018-12-18T20:25:55.090Z,18.73
2018-12-18T20:28:25.787Z,20.17
2018-12-18T20:30:54.800Z,14.95
2018-12-18T20:33:23.589Z,16.37
2018-12-18T20:35:52.354Z,17.20
2018-12-18T20:38:21.214Z,19.53
2018-12-18T20:40:49.973Z,18.70
2018-12-18T20:43:18.759Z,17.37
2018-12-18T20:45:47.603Z,20.13
2018-12-18T20:48:16.316Z,24.82
2018-12-18T20:50:45.103Z,22.37
2018-12-18T20:53:14.044Z,24.33
2018-12-18T20:55:42.992Z,21.90
2018-12-18T20:58:11.698Z,21.25
2018-12-18T21:00:40.466Z,19.90
2018-12-18T21:03:09.255Z,20.90
2018-12-18T21:05:37.939Z,21.97
2018-12-18T21:08:07.569Z,24.47
2018-12-18T21:10:37.392Z,22.30
2018-12-18T21:13:40.466Z,21.50
2018-12-18T21:16:09.581Z,25.13
2018-12-18T21:18:38.437Z,23.57
2018-12-18T21:21:07.613Z,19.50
2018-12-18T21:23:37.590Z,19.30
2018-12-18T21:26:07.474Z,21.10
2018-12-18T21:28:36.362Z,20.53
2018-12-18T21:31:05.162Z,19.07
2018-12-18T21:33:33.920Z,16.80
2018-12-18T21:36:02.909Z,19.87
2018-12-18T21:38:31.661Z,17.47
2018-12-18T21:41:00.622Z,19.30
2018-12-18T21:43:29.497Z,18.35
2018-12-18T21:45:58.229Z,16.10
2018-12-18T21:48:27.035Z,15.73
2018-12-18T21:50:55.844Z,17.37
2018-12-18T21:53:24.691Z,20.20
2018-12-18T21:55:53.517Z,16.50
2018-12-18T21:58:22.337Z,19.30
2018-12-18T22:00:51.023Z,20.15
2018-12-18T22:03:19.685Z,17.07
2018-12-18T22:05:48.744Z,18.92
2018-12-18T22:08:17.700Z,17.05
2018-12-18T22:10:46.663Z,18.37
2018-12-18T22:13:15.761Z,16.53
2018-12-18T22:15:44.600Z,14.85
2018-12-18T22:18:13.432Z,19.30
2018-12-18T22:20:42.174Z,17.57
2018-12-18T22:23:10.923Z,15.33
2018-12-18T22:25:39.590Z,15.70
2018-12-18T22:28:08.461Z,14.30
2018-12-18T22:30:37.579Z,15.80
2018-12-18T22:33:06.369Z,15.30
2018-12-18T22:35:35.284Z,13.57
2018-12-18T22:38:04.001Z,13.87
2018-12-18T22:40:32.761Z,14.47
2018-12-18T22:43:01.652Z,15.60
2018-12-18T22:45:30.335Z,15.43
2018-12-18T22:47:59.055Z,13.83
2018-12-18T22:50:27.812Z,13.93
2018-12-18T22:52:56.550Z,14.33
2018-12-18T22:55:25.242Z,17.07
2018-12-18T22:57:54.103Z,14.73
2018-12-18T23:00:28.087Z,13.10
2018-12-18T23:02:56.870Z,15.30
2018-12-18T23:05:25.613Z,15.43
2018-12-18T23:07:54.300Z,14.93
2018-12-18T23:10:23.060Z,18.93
2018-12-18T23:12:51.778Z,17.03
2018-12-18T23:15:20.483Z,19.07
2018-12-18T23:17:49.307Z,18.92
2018-12-18T23:20:18.005Z,17.93
2018-12-18T23:22:46.816Z,21.27
2018-12-18T23:25:15.652Z,16.42
2018-12-18T23:27:44.340Z,20.57
2018-12-18T23:30:13.182Z,17.40
2018-12-18T23:32:41.914Z,21.67
2018-12-18T23:35:10.809Z,22.00
2018-12-18T23:37:39.546Z,20.50
2018-12-18T23:40:08.684Z,21.00
2018-12-18T23:42:37.640Z,25.82
2018-12-18T23:45:06.668Z,23.00
2018-12-18T23:47:35.425Z,23.90
2018-12-18T23:50:04.514Z,22.60
2018-12-18T23:52:33.351Z,25.00
2018-12-18T23:55:02.169Z,25.40
2018-12-18T23:57:30.915Z,20.83
2018-12-18T23:59:59.678Z,23.43
